createdAt,value
2017-03-29T00:01:00.795Z,1015.25
2017-03-29T00:02:11.067Z,1015.24
2017-03-29T00:03:21.336Z,1015.24
2017-03-29T00:04:31.603Z,1015.3
2017-03-29T00:05:42.137Z,1015.31
2017-03-29T00:06:52.103Z,1015.3
2017-03-29T00:08:02.077Z,1015.28
2017-03-29T00:09:12.354Z,1015.3
2017-03-29T00:10:22.628Z,1015.35
2017-03-29T00:11:33.194Z,1015.3
2017-03-29T00:12:43.474Z,1015.28
2017-03-29T00:13:53.446Z,1015.29
2017-03-29T00:15:03.721Z,1015.31
2017-03-29T00:16:13.999Z,1015.28
2017-03-29T00:17:24.528Z,1015.3
2017-03-29T00:18:34.172Z,1015.31
2017-03-29T00:19:44.443Z,1015.29
2017-03-29T00:20:54.723Z,1015.32
2017-03-29T00:22:05.560Z,1015.33
2017-03-29T00:23:16.081Z,1015.33
2017-03-29T00:24:26.361Z,1015.33
2017-03-29T00:25:36.008Z,1015.33
2017-03-29T00:26:45.998Z,1015.37
2017-03-29T00:27:56.271Z,1015.32
2017-03-29T00:29:06.177Z,1015.33
2017-03-29T00:30:16.169Z,1015.3
2017-03-29T00:31:26.438Z,1015.28
2017-03-29T00:32:36.406Z,1015.29
2017-03-29T00:33:46.051Z,1015.3
2017-03-29T00:34:56.268Z,1015.28
2017-03-29T00:36:06.230Z,1015.28
2017-03-29T00:37:16.502Z,1015.28
2017-03-29T00:38:25.836Z,1015.3
2017-03-29T00:39:35.801Z,1015.3
2017-03-29T00:40:46.375Z,1015.35
2017-03-29T00:41:56.652Z,1015.36
2017-03-29T00:43:06.927Z,1015.34
2017-03-29T00:44:17.207Z,1015.36
2017-03-29T00:45:27.487Z,1015.38
2017-03-29T00:46:38.019Z,1015.35
2017-03-29T00:47:48.293Z,1015.37
2017-03-29T00:48:58.569Z,1015.39
2017-03-29T00:50:08.531Z,1015.41
2017-03-29T00:51:18.800Z,1015.43
2017-03-29T00:52:29.010Z,1015.47
2017-03-29T00:53:38.991Z,1015.44
2017-03-29T00:54:49.263Z,1015.46
2017-03-29T00:55:59.539Z,1015.46
2017-03-29T00:57:09.494Z,1015.45
2017-03-29T00:58:19.440Z,1015.45
2017-03-29T00:59:29.396Z,1015.39
2017-03-29T01:00:39.363Z,1015.36
2017-03-29T01:01:49.638Z,1015.37
2017-03-29T01:02:59.596Z,1015.34
2017-03-29T01:04:10.169Z,1015.32
2017-03-29T01:05:20.446Z,1015.38
2017-03-29T01:06:30.405Z,1015.34
2017-03-29T01:07:40.367Z,1015.32
2017-03-29T01:08:50.641Z,1015.37
2017-03-29T01:10:01.214Z,1015.33
2017-03-29T01:11:10.869Z,1015.34
2017-03-29T01:12:20.515Z,1015.28
2017-03-29T01:13:30.162Z,1015.28
2017-03-29T01:14:40.453Z,1015.26
2017-03-29T01:15:50.970Z,1015.27
2017-03-29T01:17:01.242Z,1015.19
2017-03-29T01:18:11.534Z,1015.21
2017-03-29T01:19:21.495Z,1015.22
2017-03-29T01:20:31.151Z,1015.26
2017-03-29T01:21:41.727Z,1015.22
2017-03-29T01:22:51.997Z,1015.2
2017-03-29T01:24:01.336Z,1015.2
2017-03-29T01:25:11.613Z,1015.17
2017-03-29T01:26:21.574Z,1015.14
2017-03-29T01:27:32.096Z,1015.13
2017-03-29T01:28:42.061Z,1015.11
2017-03-29T01:29:52.337Z,1015.16
2017-03-29T01:31:02.307Z,1015.13
2017-03-29T01:32:12.580Z,1015.11
2017-03-29T01:33:22.942Z,1015.14
2017-03-29T01:34:32.913Z,1015.13
2017-03-29T01:35:42.879Z,1015.16
2017-03-29T01:36:53.152Z,1015.12
2017-03-29T01:38:02.805Z,1015.15
2017-03-29T01:39:13.325Z,1015.15
2017-03-29T01:40:23.604Z,1015.16
2017-03-29T01:41:33.892Z,1015.13
2017-03-29T01:42:44.174Z,1015.13
2017-03-29T01:43:54.133Z,1015.07
2017-03-29T01:45:04.666Z,1015.12
2017-03-29T01:46:14.638Z,1015.04
2017-03-29T01:47:24.903Z,1015.09
2017-03-29T01:48:34.554Z,1015.03
2017-03-29T01:49:44.211Z,1015.08
2017-03-29T01:50:53.860Z,1015.02
2017-03-29T01:52:04.134Z,1015.01
2017-03-29T01:53:14.410Z,1014.98
2017-03-29T01:54:24.377Z,1014.97
2017-03-29T01:55:34.670Z,1014.95
2017-03-29T01:56:44.877Z,1014.99
2017-03-29T01:57:54.843Z,1014.94
2017-03-29T01:59:05.117Z,1015.05
2017-03-29T02:00:15.385Z,1015.02
2017-03-29T02:01:25.673Z,1015.03
2017-03-29T02:02:36.198Z,1015
2017-03-29T02:03:46.161Z,1015.01
2017-03-29T02:04:55.812Z,1015.02
2017-03-29T02:06:05.779Z,1015.03
2017-03-29T02:07:16.056Z,1015.01
2017-03-29T02:08:26.577Z,1015.03
2017-03-29T02:09:36.553Z,1015.04
2017-03-29T02:10:46.196Z,1015.03
2017-03-29T02:11:56.155Z,1015.03
2017-03-29T02:13:06.429Z,1015.09
2017-03-29T02:14:16.998Z,1015.06
2017-03-29T02:15:26.955Z,1015.05
2017-03-29T02:16:36.918Z,1015.06
2017-03-29T02:17:46.580Z,1015.06
2017-03-29T02:18:56.544Z,1015.07
2017-03-29T02:20:07.294Z,1015.08
2017-03-29T02:21:17.600Z,1015.14
2017-03-29T02:22:27.975Z,1015.14
2017-03-29T02:23:38.245Z,1015.16
2017-03-29T02:24:48.206Z,1015.18
2017-03-29T02:25:58.104Z,1015.16
2017-03-29T02:27:08.383Z,1015.2
2017-03-29T02:28:18.350Z,1015.2
2017-03-29T02:29:28.621Z,1015.21
2017-03-29T02:30:38.281Z,1015.2
2017-03-29T02:31:48.502Z,1015.22
2017-03-29T02:32:58.780Z,1015.24
2017-03-29T02:34:09.290Z,1015.22
2017-03-29T02:35:19.559Z,1015.21
2017-03-29T02:36:29.208Z,1015.19
2017-03-29T02:37:39.416Z,1015.2
2017-03-29T02:38:49.374Z,1015.11
2017-03-29T02:39:59.652Z,1015.1
2017-03-29T02:41:09.918Z,1015.12
2017-03-29T02:42:19.881Z,1015.08
2017-03-29T02:43:30.446Z,1015.08
2017-03-29T02:44:40.098Z,1015.08
2017-03-29T02:45:50.368Z,1015.06
2017-03-29T02:47:00.639Z,1015.09
2017-03-29T02:48:10.910Z,1015.03
2017-03-29T03:03:26.778Z,1014.97
2017-03-29T03:04:37.070Z,1014.95
2017-03-29T03:05:47.030Z,1014.98
2017-03-29T03:06:57.311Z,1014.98
2017-03-29T03:08:07.893Z,1014.96
2017-03-29T03:09:17.863Z,1014.98
2017-03-29T03:10:27.848Z,1014.95
2017-03-29T03:11:38.129Z,1014.93
2017-03-29T03:12:48.400Z,1014.89
2017-03-29T03:13:58.920Z,1014.9
2017-03-29T03:15:09.197Z,1014.9
2017-03-29T03:16:19.158Z,1014.88
2017-03-29T03:17:29.441Z,1014.86
2017-03-29T03:18:39.106Z,1014.8
2017-03-29T03:19:49.638Z,1014.82
2017-03-29T03:20:59.910Z,1014.89
2017-03-29T03:22:10.190Z,1014.86
2017-03-29T03:23:20.186Z,1014.83
2017-03-29T03:24:30.140Z,1014.84
2017-03-29T03:25:40.355Z,1014.87
2017-03-29T03:26:50.312Z,1014.84
2017-03-29T03:28:00.583Z,1014.79
2017-03-29T03:29:10.865Z,1014.8
2017-03-29T03:30:21.158Z,1014.8
2017-03-29T03:31:31.681Z,1014.79
2017-03-29T03:32:41.642Z,1014.83
2017-03-29T03:33:51.916Z,1014.87
2017-03-29T03:35:02.196Z,1014.83
2017-03-29T03:36:12.471Z,1014.81
2017-03-29T03:37:23.025Z,1014.84
2017-03-29T03:38:33.289Z,1014.79
2017-03-29T03:39:43.254Z,1014.76
2017-03-29T03:40:53.212Z,1014.82
2017-03-29T03:42:03.191Z,1014.81
2017-03-29T03:43:13.776Z,1014.89
2017-03-29T03:44:24.051Z,1014.85
2017-03-29T03:45:34.009Z,1014.88
2017-03-29T03:46:43.979Z,1014.84
2017-03-29T03:47:53.962Z,1014.85
2017-03-29T03:49:04.178Z,1014.87
2017-03-29T03:50:14.453Z,1014.88
2017-03-29T03:51:24.420Z,1014.89
2017-03-29T03:52:34.714Z,1014.9
2017-03-29T03:53:44.678Z,1014.93
2017-03-29T03:54:55.201Z,1014.96
2017-03-29T03:56:05.162Z,1014.98
2017-03-29T03:57:15.136Z,1014.98
2017-03-29T03:58:25.407Z,1014.95
2017-03-29T03:59:35.676Z,1014.96
2017-03-29T04:00:46.310Z,1014.88
2017-03-29T04:01:56.589Z,1014.88
2017-03-29T04:03:06.867Z,1014.89
2017-03-29T04:04:16.830Z,1014.91
2017-03-29T04:05:27.115Z,1014.91
2017-03-29T04:06:37.634Z,1014.92
2017-03-29T04:07:47.917Z,1014.96
2017-03-29T04:08:58.200Z,1014.99
2017-03-29T04:10:08.174Z,1014.95
2017-03-29T04:11:18.448Z,1014.98
2017-03-29T04:12:28.968Z,1014.98
2017-03-29T04:13:39.250Z,1015.02
2017-03-29T04:14:49.524Z,1015.03
2017-03-29T04:15:59.802Z,1015.09
2017-03-29T04:17:10.072Z,1015
2017-03-29T04:18:20.279Z,1015.03
2017-03-29T04:19:30.545Z,1015.03
2017-03-29T04:20:40.849Z,1015.07
2017-03-29T04:21:50.812Z,1015.03
2017-03-29T04:23:01.083Z,1015
2017-03-29T04:24:11.595Z,1014.96
2017-03-29T04:25:21.252Z,1014.98
2017-03-29T04:26:31.521Z,1014.93
2017-03-29T04:27:41.799Z,1014.92
2017-03-29T04:28:52.073Z,1014.96
2017-03-29T04:30:02.335Z,1014.97
2017-03-29T04:31:12.622Z,1014.96
2017-03-29T04:32:22.897Z,1014.95
2017-03-29T04:33:32.856Z,1015
2017-03-29T04:34:43.138Z,1014.98
2017-03-29T04:35:53.714Z,1014.98
2017-03-29T04:37:03.986Z,1015
2017-03-29T04:38:14.041Z,1014.99
2017-03-29T04:39:24.309Z,1014.97
2017-03-29T04:40:34.596Z,1014.98
2017-03-29T04:41:45.111Z,1014.98
2017-03-29T04:42:55.084Z,1015.05
2017-03-29T04:44:05.358Z,1015.06
2017-03-29T04:45:15.314Z,1015.06
2017-03-29T04:46:25.594Z,1015.05
2017-03-29T04:47:35.493Z,1014.99
2017-03-29T04:48:45.764Z,1014.98
2017-03-29T04:49:55.739Z,1015.01
2017-03-29T04:51:05.706Z,1015.01
2017-03-29T04:52:15.972Z,1015.03
2017-03-29T04:53:26.204Z,1015.02
2017-03-29T04:54:36.165Z,1015.02
2017-03-29T04:55:46.434Z,1015.04
2017-03-29T04:56:56.405Z,1015.03
2017-03-29T04:58:06.689Z,1014.98
2017-03-29T04:59:16.907Z,1014.99
2017-03-29T05:00:27.180Z,1014.95
2017-03-29T05:01:37.165Z,1014.91
2017-03-29T05:02:47.442Z,1014.93
2017-03-29T05:03:57.408Z,1014.96
2017-03-29T05:05:08.027Z,1014.85
2017-03-29T05:06:18.365Z,1014.88
2017-03-29T05:07:28.659Z,1014.85
2017-03-29T05:08:38.924Z,1014.86
2017-03-29T05:09:49.208Z,1014.9
2017-03-29T05:10:59.530Z,1014.94
2017-03-29T05:12:09.808Z,1014.99
2017-03-29T05:13:20.086Z,1015
2017-03-29T05:14:30.369Z,1015.01
2017-03-29T05:15:40.649Z,1015.05
2017-03-29T05:16:50.973Z,1015.09
2017-03-29T05:18:01.254Z,1015.13
2017-03-29T05:19:11.530Z,1015.09
2017-03-29T05:20:21.807Z,1015.1
2017-03-29T05:21:31.453Z,1015.15
2017-03-29T05:22:42.082Z,1015.19
2017-03-29T05:23:52.371Z,1015.18
2017-03-29T05:25:02.331Z,1015.2
2017-03-29T05:26:12.314Z,1015.14
2017-03-29T05:27:22.600Z,1015.17
2017-03-29T05:28:32.833Z,1015.22
2017-03-29T05:29:42.816Z,1015.2
2017-03-29T05:30:52.796Z,1015.23
2017-03-29T05:32:03.089Z,1015.17
2017-03-29T05:33:13.388Z,1015.21
2017-03-29T05:34:23.933Z,1015.21
2017-03-29T05:35:34.235Z,1015.28
2017-03-29T05:36:44.523Z,1015.28
2017-03-29T05:37:54.818Z,1015.31
2017-03-29T05:39:05.102Z,1015.35
2017-03-29T05:40:15.676Z,1015.35
2017-03-29T05:41:25.331Z,1015.4
2017-03-29T05:42:35.629Z,1015.43
2017-03-29T05:43:45.286Z,1015.38
2017-03-29T05:44:55.579Z,1015.41
2017-03-29T05:46:05.792Z,1015.46
2017-03-29T05:47:15.748Z,1015.43
2017-03-29T05:48:26.021Z,1015.43
2017-03-29T05:49:36.315Z,1015.42
2017-03-29T05:50:46.744Z,1015.47
2017-03-29T05:51:57.274Z,1015.43
2017-03-29T05:53:07.556Z,1015.41
2017-03-29T05:54:17.527Z,1015.42
2017-03-29T05:55:27.817Z,1015.45
2017-03-29T05:56:37.794Z,1015.45
2017-03-29T05:57:48.374Z,1015.45
2017-03-29T05:58:58.651Z,1015.45
2017-03-29T06:00:08.362Z,1015.43
2017-03-29T06:01:18.644Z,1015.43
2017-03-29T06:02:28.921Z,1015.43
2017-03-29T06:03:39.558Z,1015.4
2017-03-29T06:04:49.825Z,1015.42
2017-03-29T06:06:00.109Z,1015.4
2017-03-29T06:07:10.074Z,1015.45
2017-03-29T06:08:20.367Z,1015.5
2017-03-29T06:09:30.280Z,1015.41
2017-03-29T06:10:40.574Z,1015.43
2017-03-29T06:11:50.551Z,1015.4
2017-03-29T06:13:00.833Z,1015.42
2017-03-29T06:14:11.121Z,1015.43
2017-03-29T06:15:21.986Z,1015.34
2017-03-29T06:16:32.285Z,1015.37
2017-03-29T06:17:42.586Z,1015.29
2017-03-29T06:18:52.573Z,1015.37
2017-03-29T06:20:02.870Z,1015.4
2017-03-29T06:21:13.407Z,1015.37
2017-03-29T06:22:23.690Z,1015.4
2017-03-29T06:23:33.997Z,1015.35
2017-03-29T06:24:44.317Z,1015.4
2017-03-29T06:25:54.627Z,1015.36
2017-03-29T06:27:05.275Z,1015.43
2017-03-29T06:28:15.255Z,1015.41
2017-03-29T06:29:25.247Z,1015.46
2017-03-29T06:30:35.550Z,1015.42
2017-03-29T06:31:45.836Z,1015.44
2017-03-29T06:32:56.373Z,1015.46
2017-03-29T06:34:06.646Z,1015.44
2017-03-29T06:35:16.926Z,1015.41
2017-03-29T06:36:27.225Z,1015.47
2017-03-29T06:37:37.488Z,1015.43
2017-03-29T06:38:47.757Z,1015.41
2017-03-29T06:39:58.022Z,1015.42
2017-03-29T06:41:08.016Z,1015.45
2017-03-29T06:42:18.316Z,1015.43
2017-03-29T06:43:28.599Z,1015.44
2017-03-29T06:44:39.275Z,1015.46
2017-03-29T06:45:48.935Z,1015.49
2017-03-29T06:46:59.357Z,1015.54
2017-03-29T06:48:10.409Z,1015.53
2017-03-29T06:49:20.703Z,1015.52
2017-03-29T06:50:31.234Z,1015.45
2017-03-29T06:51:41.523Z,1015.43
2017-03-29T06:52:51.828Z,1015.42
2017-03-29T06:54:02.099Z,1015.44
2017-03-29T06:55:12.383Z,1015.4
2017-03-29T06:56:23.041Z,1015.4
2017-03-29T06:57:33.066Z,1015.36
2017-03-29T06:58:43.425Z,1015.39
2017-03-29T06:59:54.664Z,1015.36
2017-03-29T07:01:07.016Z,1015.36
2017-03-29T07:02:17.264Z,1015.34
2017-03-29T07:03:27.299Z,1015.34
2017-03-29T07:04:37.665Z,1015.38
2017-03-29T07:05:48.447Z,1015.35
2017-03-29T07:06:58.750Z,1015.34
2017-03-29T07:08:08.978Z,1015.35
2017-03-29T07:09:19.028Z,1015.38
2017-03-29T07:10:29.306Z,1015.36
2017-03-29T07:11:39.600Z,1015.38
2017-03-29T07:12:49.955Z,1015.36
2017-03-29T07:14:00.488Z,1015.38
2017-03-29T07:15:10.790Z,1015.37
2017-03-29T07:16:20.768Z,1015.4
2017-03-29T07:17:31.138Z,1015.39
2017-03-29T07:18:41.440Z,1015.39
2017-03-29T07:19:51.521Z,1015.43
2017-03-29T07:21:02.031Z,1015.39
2017-03-29T07:22:12.310Z,1015.4
2017-03-29T07:23:21.996Z,1015.4
2017-03-29T07:24:32.306Z,1015.38
2017-03-29T07:25:43.005Z,1015.44
2017-03-29T07:26:52.977Z,1015.43
2017-03-29T07:28:03.261Z,1015.48
2017-03-29T07:29:13.244Z,1015.47
2017-03-29T07:30:23.543Z,1015.47
2017-03-29T07:31:34.215Z,1015.5
2017-03-29T07:32:44.562Z,1015.5
2017-03-29T07:33:54.868Z,1015.5
2017-03-29T07:35:05.163Z,1015.54
2017-03-29T07:36:15.150Z,1015.54
2017-03-29T07:37:25.475Z,1015.51
2017-03-29T07:38:35.775Z,1015.55
2017-03-29T07:39:46.066Z,1015.6
2017-03-29T07:40:56.076Z,1015.54
2017-03-29T07:42:06.364Z,1015.56
2017-03-29T07:43:17.004Z,1015.51
2017-03-29T07:44:27.011Z,1015.56
2017-03-29T07:45:37.303Z,1015.59
2017-03-29T07:46:47.608Z,1015.57
2017-03-29T07:47:57.589Z,1015.61
2017-03-29T07:49:07.933Z,1015.64
2017-03-29T07:50:18.247Z,1015.64
2017-03-29T07:51:28.528Z,1015.57
2017-03-29T07:52:38.838Z,1015.64
2017-03-29T07:53:49.136Z,1015.57
2017-03-29T07:54:59.432Z,1015.59
2017-03-29T07:56:10.070Z,1015.51
2017-03-29T07:57:20.045Z,1015.58
2017-03-29T07:58:30.327Z,1015.58
2017-03-29T07:59:40.617Z,1015.62
2017-03-29T08:00:50.948Z,1015.59
2017-03-29T08:02:00.930Z,1015.62
2017-03-29T08:03:10.925Z,1015.55
2017-03-29T08:04:20.928Z,1015.59
2017-03-29T08:05:30.924Z,1015.68
2017-03-29T08:06:41.580Z,1015.66
2017-03-29T08:07:51.973Z,1015.72
2017-03-29T08:09:01.970Z,1015.78
2017-03-29T08:10:12.304Z,1015.73
2017-03-29T08:11:22.599Z,1015.74
2017-03-29T08:12:33.210Z,1015.78
2017-03-29T08:13:43.511Z,1015.76
2017-03-29T08:14:53.490Z,1015.84
2017-03-29T08:16:03.513Z,1015.79
2017-03-29T08:17:13.798Z,1015.79
2017-03-29T08:18:24.391Z,1015.78
2017-03-29T08:19:34.702Z,1015.81
2017-03-29T08:20:45.004Z,1015.9
2017-03-29T08:21:55.004Z,1015.92
2017-03-29T08:23:05.300Z,1015.92
2017-03-29T08:24:15.937Z,1015.95
2017-03-29T08:25:26.243Z,1015.88
2017-03-29T08:26:36.541Z,1015.9
2017-03-29T08:27:46.220Z,1015.88
2017-03-29T08:28:56.529Z,1015.97
2017-03-29T08:30:07.063Z,1015.96
2017-03-29T08:31:17.045Z,1015.97
2017-03-29T08:32:27.017Z,1016
2017-03-29T08:33:37.005Z,1016.04
2017-03-29T08:34:46.981Z,1016.05
2017-03-29T08:35:57.585Z,1016.01
2017-03-29T08:37:07.868Z,1016.08
2017-03-29T08:38:17.836Z,1016
2017-03-29T08:39:28.132Z,1015.91
2017-03-29T08:40:38.424Z,1015.89
2017-03-29T08:41:48.831Z,1015.93
2017-03-29T08:42:59.153Z,1015.89
2017-03-29T08:44:09.446Z,1015.99
2017-03-29T08:45:19.802Z,1015.88
2017-03-29T08:46:30.099Z,1015.99
2017-03-29T08:47:40.736Z,1016.07
2017-03-29T08:48:51.024Z,1016.01
2017-03-29T08:50:01.313Z,1016.02
2017-03-29T08:51:11.615Z,1016.04
2017-03-29T08:52:21.904Z,1016.14
2017-03-29T08:53:32.628Z,1016.08
2017-03-29T08:54:42.626Z,1016.15
2017-03-29T08:55:52.901Z,1016.13
2017-03-29T08:57:03.226Z,1016.16
2017-03-29T08:58:13.518Z,1016.06
2017-03-29T08:59:24.064Z,1016.03
2017-03-29T09:00:34.365Z,1016.03
2017-03-29T09:01:44.657Z,1016.07
2017-03-29T09:02:54.955Z,1016.1
2017-03-29T09:04:05.283Z,1016.05
2017-03-29T09:05:15.502Z,1016.1
2017-03-29T09:06:25.779Z,1016.2
2017-03-29T09:07:36.058Z,1016.17
2017-03-29T09:08:46.050Z,1016.23
2017-03-29T09:09:56.025Z,1016.25
2017-03-29T09:11:06.585Z,1016.31
2017-03-29T09:12:16.866Z,1016.31
2017-03-29T09:13:26.841Z,1016.27
2017-03-29T09:14:37.125Z,1016.39
2017-03-29T09:15:47.416Z,1016.33
2017-03-29T09:16:57.781Z,1016.36
2017-03-29T09:18:07.742Z,1016.3
2017-03-29T09:19:17.412Z,1016.33
2017-03-29T09:20:27.693Z,1016.39
2017-03-29T09:21:37.679Z,1016.41
2017-03-29T09:22:47.913Z,1016.48
2017-03-29T09:23:58.207Z,1016.43
2017-03-29T09:25:07.878Z,1016.45
2017-03-29T09:26:18.190Z,1016.43
2017-03-29T09:27:28.193Z,1016.36
2017-03-29T09:28:38.833Z,1016.43
2017-03-29T09:29:49.136Z,1016.49
2017-03-29T09:30:59.433Z,1016.51
2017-03-29T09:32:09.981Z,1016.52
2017-03-29T09:33:19.959Z,1016.56
2017-03-29T09:34:30.307Z,1016.54
2017-03-29T09:35:40.271Z,1016.53
2017-03-29T09:36:50.567Z,1016.55
2017-03-29T09:38:00.860Z,1016.48
2017-03-29T09:39:10.829Z,1016.5
2017-03-29T09:40:21.155Z,1016.53
2017-03-29T09:41:31.449Z,1016.46
2017-03-29T09:42:41.747Z,1016.52
2017-03-29T09:43:51.728Z,1016.58
2017-03-29T09:45:01.704Z,1016.54
2017-03-29T09:46:12.259Z,1016.57
2017-03-29T09:47:22.556Z,1016.58
2017-03-29T09:48:32.544Z,1016.64
2017-03-29T09:49:42.589Z,1016.58
2017-03-29T09:50:52.592Z,1016.6
2017-03-29T09:52:03.186Z,1016.59
2017-03-29T09:53:13.183Z,1016.65
2017-03-29T09:54:23.176Z,1016.68
2017-03-29T09:55:33.155Z,1016.67
2017-03-29T09:56:43.448Z,1016.64
2017-03-29T09:57:54.052Z,1016.67
2017-03-29T09:59:04.032Z,1016.75
2017-03-29T10:00:14.031Z,1016.67
2017-03-29T10:01:24.317Z,1016.66
2017-03-29T10:02:34.626Z,1016.71
2017-03-29T10:03:44.850Z,1016.6
2017-03-29T10:04:55.139Z,1016.67
2017-03-29T10:06:05.420Z,1016.64
2017-03-29T10:07:15.749Z,1016.65
2017-03-29T10:08:26.043Z,1016.66
2017-03-29T10:09:36.693Z,1016.68
2017-03-29T10:10:46.686Z,1016.7
2017-03-29T10:11:56.964Z,1016.69
2017-03-29T10:13:07.255Z,1016.65
2017-03-29T10:14:17.533Z,1016.67
2017-03-29T10:15:27.766Z,1016.73
2017-03-29T10:16:38.180Z,1016.73
2017-03-29T10:17:48.517Z,1016.73
2017-03-29T10:18:58.516Z,1016.71
2017-03-29T10:20:08.798Z,1016.74
2017-03-29T10:21:19.465Z,1016.72
2017-03-29T10:22:29.778Z,1016.71
2017-03-29T10:23:39.806Z,1016.65
2017-03-29T10:24:50.143Z,1016.64
2017-03-29T10:26:00.482Z,1016.63
2017-03-29T10:27:11.171Z,1016.7
2017-03-29T10:28:21.532Z,1016.64
2017-03-29T10:29:31.512Z,1016.63
2017-03-29T10:30:41.813Z,1016.64
2017-03-29T10:31:52.095Z,1016.56
2017-03-29T10:33:02.452Z,1016.7
2017-03-29T10:34:12.790Z,1016.66
2017-03-29T10:35:23.082Z,1016.69
2017-03-29T10:36:33.409Z,1016.62
2017-03-29T10:37:43.727Z,1016.61
2017-03-29T10:38:54.364Z,1016.65
2017-03-29T10:40:04.737Z,1016.6
2017-03-29T10:41:15.017Z,1016.65
2017-03-29T10:42:25.000Z,1016.68
2017-03-29T10:43:35.291Z,1016.66
2017-03-29T10:44:45.527Z,1016.66
2017-03-29T10:45:55.890Z,1016.72
2017-03-29T10:47:06.183Z,1016.71
2017-03-29T10:48:16.145Z,1016.71
2017-03-29T10:49:26.117Z,1016.7
2017-03-29T10:50:36.342Z,1016.63
2017-03-29T10:51:46.643Z,1016.64
2017-03-29T10:52:56.933Z,1016.72
2017-03-29T10:54:06.954Z,1016.68
2017-03-29T10:55:17.350Z,1016.59
2017-03-29T10:56:28.015Z,1016.62
2017-03-29T10:57:38.342Z,1016.69
2017-03-29T10:58:48.637Z,1016.69
2017-03-29T10:59:58.944Z,1016.58
2017-03-29T11:01:09.485Z,1016.7
2017-03-29T11:02:20.025Z,1016.54
2017-03-29T11:03:29.693Z,1016.58
2017-03-29T11:04:39.360Z,1016.63
2017-03-29T11:05:49.647Z,1016.58
2017-03-29T11:06:59.625Z,1016.66
2017-03-29T11:08:10.264Z,1016.65
2017-03-29T11:09:20.248Z,1016.64
2017-03-29T11:10:30.539Z,1016.7
2017-03-29T11:11:40.523Z,1016.75
2017-03-29T11:12:50.502Z,1016.7
2017-03-29T11:14:00.855Z,1016.71
2017-03-29T11:15:11.155Z,1016.71
2017-03-29T11:16:21.447Z,1016.63
2017-03-29T11:17:31.448Z,1016.65
2017-03-29T11:18:41.442Z,1016.62
2017-03-29T11:19:51.917Z,1016.62
2017-03-29T11:21:02.197Z,1016.7
2017-03-29T11:22:12.495Z,1016.7
2017-03-29T11:23:22.797Z,1016.69
2017-03-29T11:24:33.108Z,1016.66
2017-03-29T11:25:43.668Z,1016.75
2017-03-29T11:26:53.648Z,1016.73
2017-03-29T11:28:03.946Z,1016.73
2017-03-29T11:29:14.239Z,1016.76
2017-03-29T11:30:24.220Z,1016.81
2017-03-29T11:31:34.852Z,1016.91
2017-03-29T11:32:44.239Z,1016.95
2017-03-29T11:33:54.523Z,1016.95
2017-03-29T11:35:04.859Z,1016.83
2017-03-29T11:36:15.166Z,1016.84
2017-03-29T11:37:25.814Z,1016.95
2017-03-29T11:38:35.793Z,1016.91
2017-03-29T11:39:46.082Z,1016.89
2017-03-29T11:40:56.613Z,1016.9
2017-03-29T11:42:06.911Z,1016.91
2017-03-29T11:43:17.520Z,1016.93
2017-03-29T11:44:27.512Z,1016.93
2017-03-29T11:45:37.840Z,1017
2017-03-29T11:46:48.143Z,1017.02
2017-03-29T11:47:58.465Z,1016.96
2017-03-29T11:49:09.074Z,1017
2017-03-29T11:50:19.370Z,1017.01
2017-03-29T11:51:29.348Z,1017.01
2017-03-29T11:52:39.648Z,1017.01
2017-03-29T11:53:49.967Z,1017.02
2017-03-29T11:55:00.566Z,1017
2017-03-29T11:56:10.585Z,1016.99
2017-03-29T11:57:20.846Z,1016.98
2017-03-29T11:58:30.834Z,1016.99
2017-03-29T11:59:40.213Z,1017
2017-03-29T12:00:50.790Z,1017.05
2017-03-29T12:02:01.106Z,1017.03
2017-03-29T12:03:11.384Z,1017.03
2017-03-29T12:04:21.725Z,1016.98
2017-03-29T12:05:32.051Z,1017.08
2017-03-29T12:06:42.068Z,1016.96
2017-03-29T12:07:52.360Z,1016.96
2017-03-29T12:09:02.646Z,1016.97
2017-03-29T12:10:12.950Z,1017
2017-03-29T12:11:23.273Z,1017.03
2017-03-29T12:12:33.614Z,1016.96
2017-03-29T12:13:43.922Z,1016.95
2017-03-29T12:14:54.211Z,1017.03
2017-03-29T12:16:04.493Z,1016.98
2017-03-29T12:17:14.790Z,1016.95
2017-03-29T12:18:25.119Z,1017.02
2017-03-29T12:19:34.783Z,1016.99
2017-03-29T12:20:45.069Z,1017.01
2017-03-29T12:21:55.371Z,1017
2017-03-29T12:23:05.044Z,1017
2017-03-29T12:24:15.723Z,1016.97
2017-03-29T12:25:26.265Z,1017
2017-03-29T12:26:36.595Z,1017.01
2017-03-29T12:27:46.581Z,1017.01
2017-03-29T12:28:56.554Z,1017.01
2017-03-29T12:30:07.130Z,1016.99
2017-03-29T12:31:17.409Z,1017.04
2017-03-29T12:32:27.728Z,1017.03
2017-03-29T12:33:38.008Z,1017.02
2017-03-29T12:34:48.288Z,1016.98
2017-03-29T12:35:58.827Z,1016.99
2017-03-29T12:37:09.142Z,1017.03
2017-03-29T12:38:19.489Z,1017.01
2017-03-29T12:39:29.150Z,1016.95
2017-03-29T12:40:39.428Z,1016.99
2017-03-29T12:41:50.056Z,1017
2017-03-29T12:43:00.358Z,1016.94
2017-03-29T12:44:10.683Z,1016.95
2017-03-29T12:45:20.987Z,1016.94
2017-03-29T12:46:31.291Z,1016.94
2017-03-29T12:47:41.615Z,1016.89
2017-03-29T12:48:51.920Z,1016.9
2017-03-29T12:50:02.211Z,1016.88
2017-03-29T12:51:12.496Z,1016.87
2017-03-29T12:52:22.804Z,1016.89
2017-03-29T12:53:33.445Z,1016.88
2017-03-29T12:54:43.432Z,1016.83
2017-03-29T12:55:53.731Z,1016.87
2017-03-29T12:57:04.025Z,1016.89
2017-03-29T12:58:14.313Z,1016.86
2017-03-29T12:59:24.956Z,1016.85
2017-03-29T13:00:35.002Z,1016.81
2017-03-29T13:01:45.295Z,1016.82
2017-03-29T13:02:55.288Z,1016.89
2017-03-29T13:04:05.572Z,1016.85
2017-03-29T13:05:16.228Z,1016.89
2017-03-29T13:06:26.513Z,1016.83
2017-03-29T13:07:36.794Z,1016.86
2017-03-29T13:08:46.201Z,1016.84
2017-03-29T13:09:56.485Z,1016.85
2017-03-29T13:11:07.135Z,1016.82
2017-03-29T13:12:17.429Z,1016.83
2017-03-29T13:13:27.708Z,1016.81
2017-03-29T13:14:37.383Z,1016.82
2017-03-29T13:15:47.668Z,1016.8
2017-03-29T13:16:58.299Z,1016.88
2017-03-29T13:18:08.287Z,1016.79
2017-03-29T13:19:18.589Z,1016.77
2017-03-29T13:20:28.580Z,1016.82
2017-03-29T13:21:38.550Z,1016.84
2017-03-29T13:22:48.882Z,1016.82
2017-03-29T13:23:59.156Z,1016.84
2017-03-29T13:25:09.446Z,1016.81
2017-03-29T13:26:19.735Z,1016.79
2017-03-29T13:27:29.720Z,1016.75
2017-03-29T13:28:40.380Z,1016.84
2017-03-29T13:29:50.656Z,1016.86
2017-03-29T13:31:00.949Z,1016.86
2017-03-29T13:32:11.024Z,1016.86
2017-03-29T13:33:21.310Z,1016.85
2017-03-29T13:34:31.942Z,1016.86
2017-03-29T13:35:41.923Z,1016.83
2017-03-29T13:36:52.221Z,1016.78
2017-03-29T13:38:02.194Z,1016.81
2017-03-29T13:39:12.171Z,1016.88
2017-03-29T13:40:22.546Z,1016.81
2017-03-29T13:41:32.842Z,1016.79
2017-03-29T13:42:42.825Z,1016.86
2017-03-29T13:43:52.507Z,1016.86
2017-03-29T13:45:02.791Z,1016.83
2017-03-29T13:46:13.432Z,1016.83
2017-03-29T13:47:23.706Z,1016.83
2017-03-29T13:48:33.999Z,1016.82
2017-03-29T13:49:43.967Z,1016.84
2017-03-29T13:50:54.267Z,1016.85
2017-03-29T13:52:04.918Z,1016.81
2017-03-29T13:53:15.209Z,1016.74
2017-03-29T13:54:25.190Z,1016.81
2017-03-29T13:55:35.480Z,1016.82
2017-03-29T13:56:45.778Z,1016.83
2017-03-29T13:57:56.412Z,1016.79
2017-03-29T13:59:06.707Z,1016.83
2017-03-29T14:00:16.698Z,1016.87
2017-03-29T14:01:26.986Z,1016.85
2017-03-29T14:02:36.981Z,1016.81
2017-03-29T14:03:47.615Z,1016.83
2017-03-29T14:04:57.588Z,1016.79
2017-03-29T14:06:07.860Z,1016.81
2017-03-29T14:07:18.181Z,1016.78
2017-03-29T14:08:28.460Z,1016.82
2017-03-29T14:09:39.103Z,1016.8
2017-03-29T14:10:49.394Z,1016.79
2017-03-29T14:11:59.689Z,1016.77
2017-03-29T14:13:09.979Z,1016.83
2017-03-29T14:14:19.948Z,1016.74
2017-03-29T14:15:30.607Z,1016.76
2017-03-29T14:16:40.881Z,1016.76
2017-03-29T14:17:51.155Z,1016.73
2017-03-29T14:19:01.441Z,1016.69
2017-03-29T14:20:11.420Z,1016.74
2017-03-29T14:21:22.047Z,1016.73
2017-03-29T14:22:32.342Z,1016.72
2017-03-29T14:23:42.629Z,1016.74
2017-03-29T14:24:52.918Z,1016.73
2017-03-29T14:26:02.894Z,1016.74
2017-03-29T14:27:13.560Z,1016.71
2017-03-29T14:28:23.870Z,1016.66